sensor_id;sensor_type;location;lat;lon;timestamp;pressure;altitude;pressure_sealevel;temperature;humidity
49377;BME280;35253;34.688;33.040;2022-10-20T00:00:21;100696.28;;;22.10;100.00
49377;BME280;35253;34.688;33.040;2022-10-20T00:02:47;100700.50;;;22.13;100.00
49377;BME280;35253;34.688;33.040;2022-10-20T00:05:12;100702.47;;;21.94;100.00
49377;BME280;35253;34.688;33.040;2022-10-20T00:07:38;100704.91;;;22.06;100.00
49377;BME280;35253;34.688;33.040;2022-10-20T00:10:03;100707.81;;;22.12;100.00
49377;BME280;35253;34.688;33.040;2022-10-20T00:12:29;100708.34;;;22.16;100.00
49377;BME280;35253;34.688;33.040;2022-10-20T00:14:54;100705.94;;;22.13;100.00
49377;BME280;35253;34.688;33.040;2022-10-20T00:17:20;100702.03;;;22.07;100.00
49377;BME280;35253;34.688;33.040;2022-10-20T00:19:48;100699.84;;;22.11;100.00
49377;BME280;35253;34.688;33.040;2022-10-20T00:22:14;100713.34;;;21.94;100.00
49377;BME280;35253;34.688;33.040;2022-10-20T00:24:39;100706.25;;;22.01;100.00
49377;BME280;35253;34.688;33.040;2022-10-20T00:27:05;100716.28;;;22.09;100.00
49377;BME280;35253;34.688;33.040;2022-10-20T00:29:30;100711.72;;;22.10;100.00
49377;BME280;35253;34.688;33.040;2022-10-20T00:31:56;100709.16;;;22.08;100.00
49377;BME280;35253;34.688;33.040;2022-10-20T00:34:21;100702.22;;;22.14;100.00
49377;BME280;35253;34.688;33.040;2022-10-20T00:36:47;100691.03;;;22.17;100.00
49377;BME280;35253;34.688;33.040;2022-10-20T00:39:12;100697.00;;;22.20;100.00
49377;BME280;35253;34.688;33.040;2022-10-20T00:41:37;100684.44;;;22.19;100.00
49377;BME280;35253;34.688;33.040;2022-10-20T00:46:47;100677.94;;;22.12;100.00
49377;BME280;35253;34.688;33.040;2022-10-20T00:49:22;100674.91;;;22.07;100.00
49377;BME280;35253;34.688;33.040;2022-10-20T00:51:48;100663.34;;;22.13;100.00
49377;BME280;35253;34.688;33.040;2022-10-20T00:54:17;100663.00;;;22.16;100.00
49377;BME280;35253;34.688;33.040;2022-10-20T00:56:44;100661.50;;;22.22;100.00
49377;BME280;35253;34.688;33.040;2022-10-20T00:59:11;100652.34;;;22.23;100.00
49377;BME280;35253;34.688;33.040;2022-10-20T01:01:38;100643.19;;;22.24;100.00
49377;BME280;35253;34.688;33.040;2022-10-20T01:04:04;100652.34;;;22.23;100.00
49377;BME280;35253;34.688;33.040;2022-10-20T01:06:30;100646.06;;;22.22;100.00
49377;BME280;35253;34.688;33.040;2022-10-20T01:08:55;100643.72;;;22.27;100.00
49377;BME280;35253;34.688;33.040;2022-10-20T01:13:54;100632.69;;;22.37;100.00
49377;BME280;35253;34.688;33.040;2022-10-20T01:16:37;100643.47;;;22.05;100.00
49377;BME280;35253;34.688;33.040;2022-10-20T01:29:26;100647.09;;;21.79;100.00
49377;BME280;35253;34.688;33.040;2022-10-20T01:40:01;100647.75;;;21.81;100.00
49377;BME280;35253;34.688;33.040;2022-10-20T01:42:28;100654.50;;;21.69;100.00
49377;BME280;35253;34.688;33.040;2022-10-20T01:44:55;100654.88;;;21.40;100.00
49377;BME280;35253;34.688;33.040;2022-10-20T01:47:23;100665.19;;;21.37;100.00
49377;BME280;35253;34.688;33.040;2022-10-20T01:49:49;100647.47;;;21.25;100.00
49377;BME280;35253;34.688;33.040;2022-10-20T01:52:15;100652.47;;;21.37;100.00
49377;BME280;35253;34.688;33.040;2022-10-20T01:54:41;100652.63;;;21.36;100.00
49377;BME280;35253;34.688;33.040;2022-10-20T02:07:40;100640.09;;;21.35;100.00
49377;BME280;35253;34.688;33.040;2022-10-20T02:12:42;100635.69;;;21.42;100.00
49377;BME280;35253;34.688;33.040;2022-10-20T02:15:08;100633.31;;;21.39;100.00
49377;BME280;35253;34.688;33.040;2022-10-20T02:17:36;100626.78;;;21.49;100.00
49377;BME280;35253;34.688;33.040;2022-10-20T02:20:04;100618.81;;;21.56;100.00
49377;BME280;35253;34.688;33.040;2022-10-20T02:22:29;100618.81;;;21.56;100.00
49377;BME280;35253;34.688;33.040;2022-10-20T02:24:55;100621.56;;;21.64;100.00
49377;BME280;35253;34.688;33.040;2022-10-20T02:27:22;100618.56;;;21.67;100.00
49377;BME280;35253;34.688;33.040;2022-10-20T02:29:50;100618.88;;;21.72;100.00
49377;BME280;35253;34.688;33.040;2022-10-20T02:32:19;100619.25;;;21.77;100.00
49377;BME280;35253;34.688;33.040;2022-10-20T02:34:45;100615.19;;;21.81;100.00
49377;BME280;35253;34.688;33.040;2022-10-20T02:37:11;100619.59;;;21.82;100.00
49377;BME280;35253;34.688;33.040;2022-10-20T02:39:37;100621.69;;;21.88;100.00
49377;BME280;35253;34.688;33.040;2022-10-20T02:42:02;100627.97;;;21.89;100.00
49377;BME280;35253;34.688;33.040;2022-10-20T02:44:28;100629.47;;;21.83;100.00
49377;BME280;35253;34.688;33.040;2022-10-20T02:46:53;100631.16;;;21.84;100.00
49377;BME280;35253;34.688;33.040;2022-10-20T02:49:19;100625.56;;;21.86;100.00
49377;BME280;35253;34.688;33.040;2022-10-20T02:51:45;100614.53;;;21.87;100.00
49377;BME280;35253;34.688;33.040;2022-10-20T02:54:11;100612.53;;;21.89;100.00
49377;BME280;35253;34.688;33.040;2022-10-20T02:56:36;100606.78;;;21.92;100.00
49377;BME280;35253;34.688;33.040;2022-10-20T02:59:02;100615.59;;;21.94;100.00
49377;BME280;35253;34.688;33.040;2022-10-20T03:01:27;100615.59;;;21.94;100.00
49377;BME280;35253;34.688;33.040;2022-10-20T03:03:52;100608.16;;;21.96;100.00
49377;BME280;35253;34.688;33.040;2022-10-20T03:06:23;100595.28;;;22.07;100.00
49377;BME280;35253;34.688;33.040;2022-10-20T03:08:48;100606.81;;;22.09;100.00
49377;BME280;35253;34.688;33.040;2022-10-20T03:11:14;100612.44;;;21.73;100.00
49377;BME280;35253;34.688;33.040;2022-10-20T03:13:39;100627.31;;;21.53;100.00
49377;BME280;35253;34.688;33.040;2022-10-20T03:16:05;100636.03;;;21.39;100.00
49377;BME280;35253;34.688;33.040;2022-10-20T03:18:30;100635.94;;;21.48;100.00
49377;BME280;35253;34.688;33.040;2022-10-20T03:20:56;100643.56;;;21.53;100.00
49377;BME280;35253;34.688;33.040;2022-10-20T03:23:21;100640.41;;;21.66;100.00
49377;BME280;35253;34.688;33.040;2022-10-20T03:25:47;100656.97;;;21.54;100.00
49377;BME280;35253;34.688;33.040;2022-10-20T03:28:12;100666.56;;;21.41;100.00
49377;BME280;35253;34.688;33.040;2022-10-20T03:30:37;100675.66;;;21.57;100.00
49377;BME280;35253;34.688;33.040;2022-10-20T03:33:03;100680.59;;;21.62;100.00
49377;BME280;35253;34.688;33.040;2022-10-20T03:35:28;100672.81;;;21.67;100.00
49377;BME280;35253;34.688;33.040;2022-10-20T03:37:54;100672.50;;;21.70;100.00
49377;BME280;35253;34.688;33.040;2022-10-20T03:40:19;100658.44;;;21.75;100.00
49377;BME280;35253;34.688;33.040;2022-10-20T03:42:45;100668.44;;;21.74;100.00
49377;BME280;35253;34.688;33.040;2022-10-20T03:45:10;100670.13;;;21.67;100.00
49377;BME280;35253;34.688;33.040;2022-10-20T03:47:36;100677.59;;;21.73;100.00
49377;BME280;35253;34.688;33.040;2022-10-20T03:50:01;100666.81;;;21.55;100.00
49377;BME280;35253;34.688;33.040;2022-10-20T03:52:27;100670.13;;;21.41;100.00
49377;BME280;35253;34.688;33.040;2022-10-20T03:54:52;100669.59;;;21.38;100.00
49377;BME280;35253;34.688;33.040;2022-10-20T03:57:18;100671.16;;;21.40;100.00
49377;BME280;35253;34.688;33.040;2022-10-20T03:59:44;100669.63;;;21.46;100.00
49377;BME280;35253;34.688;33.040;2022-10-20T04:02:13;100664.56;;;21.51;100.00
49377;BME280;35253;34.688;33.040;2022-10-20T04:04:45;100663.97;;;21.65;100.00
49377;BME280;35253;34.688;33.040;2022-10-20T04:07:11;100664.63;;;21.59;100.00
49377;BME280;35253;34.688;33.040;2022-10-20T04:09:36;100671.06;;;21.58;100.00
49377;BME280;35253;34.688;33.040;2022-10-20T04:12:02;100682.00;;;21.40;100.00
49377;BME280;35253;34.688;33.040;2022-10-20T04:14:27;100680.81;;;21.43;100.00
49377;BME280;35253;34.688;33.040;2022-10-20T04:16:52;100692.25;;;21.29;100.00
49377;BME280;35253;34.688;33.040;2022-10-20T04:19:18;100694.66;;;21.32;100.00
49377;BME280;35253;34.688;33.040;2022-10-20T04:21:43;100692.31;;;21.37;100.00
49377;BME280;35253;34.688;33.040;2022-10-20T04:24:09;100697.00;;;21.27;100.00
49377;BME280;35253;34.688;33.040;2022-10-20T04:26:34;100705.94;;;21.19;100.00
49377;BME280;35253;34.688;33.040;2022-10-20T04:28:59;100704.84;;;21.38;100.00
49377;BME280;35253;34.688;33.040;2022-10-20T04:31:25;100710.38;;;21.28;100.00
49377;BME280;35253;34.688;33.040;2022-10-20T04:33:50;100718.84;;;21.25;100.00
49377;BME280;35253;34.688;33.040;2022-10-20T04:36:16;100721.31;;;21.36;100.00
49377;BME280;35253;34.688;33.040;2022-10-20T04:38:41;100735.50;;;21.56;100.00
49377;BME280;35253;34.688;33.040;2022-10-20T04:41:07;100735.13;;;21.51;100.00
49377;BME280;35253;34.688;33.040;2022-10-20T04:43:32;100738.34;;;21.54;100.00
49377;BME280;35253;34.688;33.040;2022-10-20T04:46:01;100741.56;;;21.76;100.00
49377;BME280;35253;34.688;33.040;2022-10-20T04:48:28;100734.31;;;21.84;100.00
49377;BME280;35253;34.688;33.040;2022-10-20T04:51:00;100734.47;;;21.83;100.00
49377;BME280;35253;34.688;33.040;2022-10-20T04:53:25;100738.66;;;21.77;100.00
49377;BME280;35253;34.688;33.040;2022-10-20T04:55:57;100749.16;;;21.72;100.00
49377;BME280;35253;34.688;33.040;2022-10-20T04:58:22;100737.78;;;21.69;100.00
49377;BME280;35253;34.688;33.040;2022-10-20T05:00:48;100751.47;;;21.85;100.00
49377;BME280;35253;34.688;33.040;2022-10-20T05:03:14;100750.75;;;21.83;100.00
49377;BME280;35253;34.688;33.040;2022-10-20T05:05:39;100755.81;;;21.78;100.00
49377;BME280;35253;34.688;33.040;2022-10-20T05:08:05;100749.22;;;21.80;100.00
49377;BME280;35253;34.688;33.040;2022-10-20T05:10:30;100754.09;;;21.77;100.00
49377;BME280;35253;34.688;33.040;2022-10-20T05:12:56;100759.75;;;21.83;100.00
49377;BME280;35253;34.688;33.040;2022-10-20T05:15:21;100763.41;;;21.74;100.00
49377;BME280;35253;34.688;33.040;2022-10-20T05:17:47;100763.47;;;21.82;100.00
49377;BME280;35253;34.688;33.040;2022-10-20T05:20:12;100763.00;;;21.87;100.00
49377;BME280;35253;34.688;33.040;2022-10-20T05:22:37;100766.16;;;22.00;100.00
49377;BME280;35253;34.688;33.040;2022-10-20T05:25:03;100757.72;;;22.11;100.00
49377;BME280;35253;34.688;33.040;2022-10-20T05:27:29;100763.69;;;22.15;100.00
49377;BME280;35253;34.688;33.040;2022-10-20T05:29:54;100773.81;;;22.05;100.00
49377;BME280;35253;34.688;33.040;2022-10-20T05:32:20;100768.38;;;22.05;100.00
49377;BME280;35253;34.688;33.040;2022-10-20T05:34:45;100775.50;;;22.06;100.00
49377;BME280;35253;34.688;33.040;2022-10-20T05:37:10;100768.25;;;22.14;100.00
49377;BME280;35253;34.688;33.040;2022-10-20T05:39:36;100772.22;;;22.28;100.00
49377;BME280;35253;34.688;33.040;2022-10-20T05:42:01;100779.06;;;22.40;100.00
49377;BME280;35253;34.688;33.040;2022-10-20T05:44:27;100784.81;;;22.37;100.00
49377;BME280;35253;34.688;33.040;2022-10-20T05:46:52;100785.00;;;22.43;100.00
49377;BME280;35253;34.688;33.040;2022-10-20T05:49:18;100786.47;;;22.30;100.00
49377;BME280;35253;34.688;33.040;2022-10-20T05:51:44;100793.97;;;22.36;100.00
49377;BME280;35253;34.688;33.040;2022-10-20T05:54:10;100797.06;;;22.41;100.00
49377;BME280;35253;34.688;33.040;2022-10-20T05:56:36;100790.13;;;22.46;100.00
49377;BME280;35253;34.688;33.040;2022-10-20T05:59:02;100792.66;;;22.48;100.00
49377;BME280;35253;34.688;33.040;2022-10-20T06:01:31;100792.31;;;22.51;100.00
49377;BME280;35253;34.688;33.040;2022-10-20T06:04:04;100802.91;;;22.62;100.00
49377;BME280;35253;34.688;33.040;2022-10-20T06:06:31;100797.63;;;22.61;100.00
49377;BME280;35253;34.688;33.040;2022-10-20T06:08:57;100795.81;;;22.69;100.00
49377;BME280;35253;34.688;33.040;2022-10-20T06:11:23;100794.75;;;22.62;100.00
49377;BME280;35253;34.688;33.040;2022-10-20T06:13:49;100806.13;;;22.66;100.00
49377;BME280;35253;34.688;33.040;2022-10-20T06:16:16;100807.03;;;22.74;100.00
49377;BME280;35253;34.688;33.040;2022-10-20T06:18:41;100803.00;;;22.86;100.00
49377;BME280;35253;34.688;33.040;2022-10-20T06:21:12;100804.31;;;22.74;100.00
49377;BME280;35253;34.688;33.040;2022-10-20T06:23:38;100814.69;;;22.71;100.00
49377;BME280;35253;34.688;33.040;2022-10-20T06:26:07;100802.69;;;22.98;100.00
49377;BME280;35253;34.688;33.040;2022-10-20T06:28:33;100803.03;;;23.03;100.00
49377;BME280;35253;34.688;33.040;2022-10-20T06:30:59;100802.53;;;22.99;100.00
49377;BME280;35253;34.688;33.040;2022-10-20T06:33:25;100798.97;;;23.23;100.00
49377;BME280;35253;34.688;33.040;2022-10-20T06:35:57;100807.13;;;23.31;100.00
49377;BME280;35253;34.688;33.040;2022-10-20T06:38:22;100803.75;;;23.29;100.00
49377;BME280;35253;34.688;33.040;2022-10-20T06:40:48;100805.81;;;23.51;100.00
49377;BME280;35253;34.688;33.040;2022-10-20T06:43:13;100797.47;;;23.53;100.00
49377;BME280;35253;34.688;33.040;2022-10-20T06:45:39;100802.75;;;23.54;100.00
49377;BME280;35253;34.688;33.040;2022-10-20T06:48:04;100799.16;;;23.54;100.00
49377;BME280;35253;34.688;33.040;2022-10-20T06:50:31;100797.63;;;23.67;100.00
49377;BME280;35253;34.688;33.040;2022-10-20T06:52:57;100805.78;;;23.75;100.00
49377;BME280;35253;34.688;33.040;2022-10-20T06:55:22;100815.09;;;23.97;100.00
49377;BME280;35253;34.688;33.040;2022-10-20T06:57:48;100812.69;;;24.02;100.00
49377;BME280;35253;34.688;33.040;2022-10-20T07:00:13;100812.00;;;24.08;100.00
49377;BME280;35253;34.688;33.040;2022-10-20T07:02:39;100811.16;;;24.16;100.00
49377;BME280;35253;34.688;33.040;2022-10-20T07:05:04;100805.34;;;24.11;100.00
49377;BME280;35253;34.688;33.040;2022-10-20T07:07:30;100805.72;;;24.08;100.00
49377;BME280;35253;34.688;33.040;2022-10-20T07:09:55;100804.47;;;24.27;100.00
49377;BME280;35253;34.688;33.040;2022-10-20T07:12:21;100805.81;;;24.39;100.00
49377;BME280;35253;34.688;33.040;2022-10-20T07:14:46;100814.25;;;24.52;100.00
49377;BME280;35253;34.688;33.040;2022-10-20T07:17:12;100813.78;;;24.48;100.00
49377;BME280;35253;34.688;33.040;2022-10-20T07:19:37;100806.53;;;24.63;100.00
49377;BME280;35253;34.688;33.040;2022-10-20T07:22:03;100814.75;;;24.55;100.00
49377;BME280;35253;34.688;33.040;2022-10-20T07:24:28;100802.38;;;24.76;100.00
49377;BME280;35253;34.688;33.040;2022-10-20T07:26:54;100806.44;;;24.80;100.00
49377;BME280;35253;34.688;33.040;2022-10-20T07:29:20;100802.69;;;24.81;100.00
49377;BME280;35253;34.688;33.040;2022-10-20T07:31:46;100801.88;;;24.72;100.00
49377;BME280;35253;34.688;33.040;2022-10-20T07:34:12;100796.84;;;24.84;100.00
49377;BME280;35253;34.688;33.040;2022-10-20T07:36:39;100797.28;;;25.03;100.00
49377;BME280;35253;34.688;33.040;2022-10-20T07:39:05;100794.63;;;24.95;100.00
49377;BME280;35253;34.688;33.040;2022-10-20T07:41:30;100797.84;;;24.99;100.00
49377;BME280;35253;34.688;33.040;2022-10-20T07:43:56;100795.59;;;25.02;100.00
49377;BME280;35253;34.688;33.040;2022-10-20T07:46:22;100793.34;;;25.06;100.00
49377;BME280;35253;34.688;33.040;2022-10-20T07:48:48;100789.78;;;25.05;100.00
49377;BME280;35253;34.688;33.040;2022-10-20T07:56:26;100786.00;;;25.29;100.00
49377;BME280;35253;34.688;33.040;2022-10-20T07:58:51;100791.09;;;25.32;100.00
49377;BME280;35253;34.688;33.040;2022-10-20T08:01:18;100780.53;;;25.29;100.00
49377;BME280;35253;34.688;33.040;2022-10-20T08:03:43;100788.97;;;25.42;100.00
49377;BME280;35253;34.688;33.040;2022-10-20T08:06:09;100784.78;;;25.54;100.00
49377;BME280;35253;34.688;33.040;2022-10-20T08:08:34;100784.91;;;25.38;100.00
49377;BME280;35253;34.688;33.040;2022-10-20T08:11:00;100780.91;;;25.49;100.00
49377;BME280;35253;34.688;33.040;2022-10-20T08:13:26;100779.31;;;25.54;100.00
49377;BME280;35253;34.688;33.040;2022-10-20T08:15:52;100785.28;;;25.73;100.00
49377;BME280;35253;34.688;33.040;2022-10-20T08:18:18;100777.22;;;25.79;100.00
49377;BME280;35253;34.688;33.040;2022-10-20T08:20:43;100781.63;;;25.95;100.00
49377;BME280;35253;34.688;33.040;2022-10-20T08:23:10;100789.22;;;26.22;100.00
49377;BME280;35253;34.688;33.040;2022-10-20T08:25:36;100783.81;;;26.29;100.00
49377;BME280;35253;34.688;33.040;2022-10-20T08:28:01;100788.66;;;26.41;100.00
49377;BME280;35253;34.688;33.040;2022-10-20T08:30:27;100788.31;;;26.51;100.00
49377;BME280;35253;34.688;33.040;2022-10-20T08:32:52;100799.13;;;26.74;100.00
49377;BME280;35253;34.688;33.040;2022-10-20T08:35:18;100799.34;;;26.58;100.00
49377;BME280;35253;34.688;33.040;2022-10-20T08:37:44;100795.66;;;26.65;100.00
49377;BME280;35253;34.688;33.040;2022-10-20T08:40:11;100795.09;;;26.55;100.00
49377;BME280;35253;34.688;33.040;2022-10-20T08:42:41;100793.50;;;26.61;100.00
49377;BME280;35253;34.688;33.040;2022-10-20T08:45:18;100789.84;;;26.54;100.00
49377;BME280;35253;34.688;33.040;2022-10-20T08:47:44;100790.25;;;26.36;100.00
49377;BME280;35253;34.688;33.040;2022-10-20T08:50:12;100791.56;;;26.40;100.00
49377;BME280;35253;34.688;33.040;2022-10-20T08:52:40;100788.66;;;26.41;100.00
49377;BME280;35253;34.688;33.040;2022-10-20T08:55:06;100798.41;;;26.51;100.00
49377;BME280;35253;34.688;33.040;2022-10-20T08:57:32;100792.47;;;26.62;100.00
49377;BME280;35253;34.688;33.040;2022-10-20T09:00:21;100794.81;;;26.65;100.00
49377;BME280;35253;34.688;33.040;2022-10-20T09:02:45;100795.22;;;26.83;100.00
49377;BME280;35253;34.688;33.040;2022-10-20T09:05:11;100788.28;;;26.80;100.00
49377;BME280;35253;34.688;33.040;2022-10-20T09:07:38;100784.78;;;26.86;100.00
49377;BME280;35253;34.688;33.040;2022-10-20T09:10:24;100783.44;;;26.97;100.00
49377;BME280;35253;34.688;33.040;2022-10-20T09:12:50;100783.16;;;27.13;100.00
49377;BME280;35253;34.688;33.040;2022-10-20T09:15:17;100770.66;;;27.25;100.00
49377;BME280;35253;34.688;33.040;2022-10-20T09:17:45;100771.25;;;27.42;100.00
49377;BME280;35253;34.688;33.040;2022-10-20T09:20:22;100783.13;;;27.49;100.00
49377;BME280;35253;34.688;33.040;2022-10-20T09:22:48;100775.19;;;27.61;100.00
49377;BME280;35253;34.688;33.040;2022-10-20T09:25:19;100768.81;;;27.54;100.00
49377;BME280;35253;34.688;33.040;2022-10-20T09:27:48;100777.53;;;27.43;100.00
49377;BME280;35253;34.688;33.040;2022-10-20T09:30:19;100753.97;;;27.42;100.00
49377;BME280;35253;34.688;33.040;2022-10-20T09:32:45;100762.25;;;27.27;100.00
49377;BME280;35253;34.688;33.040;2022-10-20T09:35:11;100762.75;;;27.37;100.00
49377;BME280;35253;34.688;33.040;2022-10-20T09:37:40;100763.22;;;27.41;100.00
49377;BME280;35253;34.688;33.040;2022-10-20T09:40:12;100766.69;;;27.49;100.00
49377;BME280;35253;34.688;33.040;2022-10-20T09:42:39;100758.38;;;27.64;100.00
49377;BME280;35253;34.688;33.040;2022-10-20T09:45:15;100756.09;;;27.46;100.00
49377;BME280;35253;34.688;33.040;2022-10-20T09:47:43;100756.19;;;27.31;100.00
49377;BME280;35253;34.688;33.040;2022-10-20T09:50:15;100750.50;;;27.12;100.00
49377;BME280;35253;34.688;33.040;2022-10-20T09:52:42;100749.16;;;27.22;100.00
49377;BME280;35253;34.688;33.040;2022-10-20T09:55:31;100754.72;;;27.35;100.00
49377;BME280;35253;34.688;33.040;2022-10-20T09:58:00;100756.38;;;27.51;100.00
49377;BME280;35253;34.688;33.040;2022-10-20T10:00:29;100749.59;;;27.75;100.00
49377;BME280;35253;34.688;33.040;2022-10-20T10:03:14;100751.38;;;27.89;100.00
49377;BME280;35253;34.688;33.040;2022-10-20T10:05:56;100751.97;;;28.12;100.00
49377;BME280;35253;34.688;33.040;2022-10-20T10:08:23;100746.22;;;28.07;100.00
49377;BME280;35253;34.688;33.040;2022-10-20T10:11:34;100743.88;;;28.04;100.00
49377;BME280;35253;34.688;33.040;2022-10-20T10:13:37;100750.72;;;27.87;100.00
49377;BME280;35253;34.688;33.040;2022-10-20T10:16:07;100746.69;;;27.83;100.00
49377;BME280;35253;34.688;33.040;2022-10-20T10:18:33;100744.25;;;27.95;100.00
49377;BME280;35253;34.688;33.040;2022-10-20T10:21:03;100736.72;;;28.03;100.00
49377;BME280;35253;34.688;33.040;2022-10-20T10:23:30;100741.28;;;28.31;100.00
49377;BME280;35253;34.688;33.040;2022-10-20T10:25:57;100729.41;;;28.64;100.00
49377;BME280;35253;34.688;33.040;2022-10-20T10:28:26;100732.88;;;28.99;100.00
49377;BME280;35253;34.688;33.040;2022-10-20T10:33:39;100730.78;;;29.54;100.00
49377;BME280;35253;34.688;33.040;2022-10-20T10:36:05;100727.63;;;29.70;100.00
49377;BME280;35253;34.688;33.040;2022-10-20T10:38:34;100722.28;;;30.02;100.00
49377;BME280;35253;34.688;33.040;2022-10-20T10:41:21;100724.63;;;29.85;100.00
49377;BME280;35253;34.688;33.040;2022-10-20T10:56:28;100709.72;;;31.57;100.00
49377;BME280;35253;34.688;33.040;2022-10-20T10:59:14;100722.94;;;31.24;100.00
49377;BME280;35253;34.688;33.040;2022-10-20T11:07:12;100715.88;;;31.96;100.00
49377;BME280;35253;34.688;33.040;2022-10-20T11:09:51;100714.22;;;31.77;100.00
49377;BME280;35253;34.688;33.040;2022-10-20T11:12:25;100711.00;;;31.30;100.00
49377;BME280;35253;34.688;33.040;2022-10-20T11:17:56;100698.91;;;31.56;100.00
49377;BME280;35253;34.688;33.040;2022-10-20T11:20:27;100721.13;;;30.73;100.00
49377;BME280;35253;34.688;33.040;2022-10-20T11:28:30;100709.84;;;29.79;100.00
49377;BME280;35253;34.688;33.040;2022-10-20T11:30:59;100698.97;;;28.53;100.00
49377;BME280;35253;34.688;33.040;2022-10-20T11:33:31;100705.09;;;28.07;100.00
49377;BME280;35253;34.688;33.040;2022-10-20T11:36:03;100710.91;;;27.91;100.00
49377;BME280;35253;34.688;33.040;2022-10-20T11:41:37;100707.56;;;28.37;100.00
49377;BME280;35253;34.688;33.040;2022-10-20T11:44:06;100691.91;;;28.78;100.00
49377;BME280;35253;34.688;33.040;2022-10-20T11:49:03;100704.97;;;28.76;100.00
49377;BME280;35253;34.688;33.040;2022-10-20T11:51:34;100702.78;;;28.52;100.00
49377;BME280;35253;34.688;33.040;2022-10-20T12:07:04;100701.00;;;29.11;100.00
49377;BME280;35253;34.688;33.040;2022-10-20T12:12:37;100702.94;;;28.37;100.00
49377;BME280;35253;34.688;33.040;2022-10-20T12:15:25;100691.31;;;28.29;100.00
49377;BME280;35253;34.688;33.040;2022-10-20T12:17:58;100714.09;;;28.36;100.00
49377;BME280;35253;34.688;33.040;2022-10-20T12:22:54;100701.47;;;28.41;100.00
49377;BME280;35253;34.688;33.040;2022-10-20T12:38:19;100709.44;;;27.61;100.00
49377;BME280;35253;34.688;33.040;2022-10-20T12:40:51;100719.13;;;27.57;100.00
49377;BME280;35253;34.688;33.040;2022-10-20T12:43:29;100711.41;;;27.67;100.00
49377;BME280;35253;34.688;33.040;2022-10-20T12:46:03;100714.56;;;27.64;100.00
49377;BME280;35253;34.688;33.040;2022-10-20T12:48:30;100718.81;;;27.73;100.00
49377;BME280;35253;34.688;33.040;2022-10-20T12:51:01;100709.50;;;27.67;100.00
49377;BME280;35253;34.688;33.040;2022-10-20T12:53:27;100717.97;;;27.72;100.00
49377;BME280;35253;34.688;33.040;2022-10-20T12:56:06;100721.31;;;27.68;100.00
49377;BME280;35253;34.688;33.040;2022-10-20T12:58:36;100717.91;;;27.66;100.00
49377;BME280;35253;34.688;33.040;2022-10-20T13:01:04;100698.41;;;27.48;100.00
49377;BME280;35253;34.688;33.040;2022-10-20T13:03:40;100711.56;;;27.59;100.00
49377;BME280;35253;34.688;33.040;2022-10-20T13:16:36;100701.25;;;27.40;100.00
49377;BME280;35253;34.688;33.040;2022-10-20T13:19:04;100720.75;;;27.02;100.00
49377;BME280;35253;34.688;33.040;2022-10-20T13:21:32;100720.06;;;27.21;100.00
49377;BME280;35253;34.688;33.040;2022-10-20T13:24:12;100718.63;;;27.25;100.00
49377;BME280;35253;34.688;33.040;2022-10-20T13:26:45;100708.38;;;27.34;100.00
49377;BME280;35253;34.688;33.040;2022-10-20T13:29:12;100716.94;;;27.03;100.00
49377;BME280;35253;34.688;33.040;2022-10-20T13:31:48;100709.28;;;26.92;100.00
49377;BME280;35253;34.688;33.040;2022-10-20T13:40:08;100706.66;;;26.84;100.00
49377;BME280;35253;34.688;33.040;2022-10-20T13:50:13;100724.22;;;26.75;100.00
49377;BME280;35253;34.688;33.040;2022-10-20T13:52:45;100716.34;;;26.65;100.00
49377;BME280;35253;34.688;33.040;2022-10-20T13:55:16;100718.44;;;26.27;100.00
49377;BME280;35253;34.688;33.040;2022-10-20T13:57:49;100715.25;;;26.24;100.00
49377;BME280;35253;34.688;33.040;2022-10-20T14:00:17;100710.97;;;26.07;100.00
49377;BME280;35253;34.688;33.040;2022-10-20T14:02:50;100723.41;;;26.09;100.00
49377;BME280;35253;34.688;33.040;2022-10-20T14:05:18;100726.59;;;25.98;100.00
49377;BME280;35253;34.688;33.040;2022-10-20T14:07:43;100730.28;;;25.90;100.00
49377;BME280;35253;34.688;33.040;2022-10-20T14:12:46;100717.69;;;25.75;100.00
49377;BME280;35253;34.688;33.040;2022-10-20T14:15:15;100716.63;;;25.76;100.00
49377;BME280;35253;34.688;33.040;2022-10-20T14:17:53;100723.97;;;25.61;100.00
49377;BME280;35253;34.688;33.040;2022-10-20T14:20:19;100715.59;;;25.62;100.00
49377;BME280;35253;34.688;33.040;2022-10-20T14:22:45;100725.06;;;25.51;100.00
49377;BME280;35253;34.688;33.040;2022-10-20T14:25:11;100720.13;;;25.32;100.00
49377;BME280;35253;34.688;33.040;2022-10-20T14:27:37;100721.44;;;25.36;100.00
49377;BME280;35253;34.688;33.040;2022-10-20T14:30:06;100713.63;;;25.33;100.00
49377;BME280;35253;34.688;33.040;2022-10-20T14:32:33;100720.13;;;25.32;100.00
49377;BME280;35253;34.688;33.040;2022-10-20T14:35:12;100714.75;;;25.24;100.00
49377;BME280;35253;34.688;33.040;2022-10-20T14:37:42;100714.66;;;25.32;100.00
49377;BME280;35253;34.688;33.040;2022-10-20T14:42:44;100720.03;;;25.26;100.00
49377;BME280;35253;34.688;33.040;2022-10-20T14:45:16;100722.94;;;25.24;100.00
49377;BME280;35253;34.688;33.040;2022-10-20T14:47:41;100718.88;;;25.20;100.00
49377;BME280;35253;34.688;33.040;2022-10-20T14:50:17;100721.97;;;25.17;100.00